Arborfield, United Kingdom
Current Conditions -  °F | °C
As of 4:50 PM on Tuesday 21 Oct 2014 (Local Time) from EGLF Reporting Station
Scattered Clouds Scattered Clouds  
Wind Chill: 54°   Ceiling: Unl
Heat Index: 54°   Visibility: 6mi
Dew Point: 37°   Wind: 14mph
Humidity: 54%   Direction: 280°W
Pressure: 29.88"   Gusts: NA
Location:  51.4°N, 0.92°W
Report Text: EGLF 211550Z 28012KT 230V330 9999 SCT048 12/03 Q1012
Loading
Personal Weather Stations






























Interactive Weather Map New forecast layout! Learn more

10-Day Weather Forecast

Advertisements
Track Severe Weather on mobile